2022年8月16日 14:002022年8月16日 23:00有效
时间
星期二
14:00
40%
星期二
15:00
40%
星期二
16:00
40%
星期二
17:00
40%
星期二
18:00
40%
星期二
19:00
40%
星期二
20:00
40%
星期二
21:00
40%
星期二
22:00
40%
代码
IFR
IFR
IFR
IFR
IFR
IFR
IFR
IFR
IFR
天气
雷暴 雨
天空晴朗
雷暴 雨
天空晴朗
雷暴 雨
天空晴朗
雷暴 雨
天空晴朗
雷暴 雨
天空晴朗
雷暴 雨
天空晴朗
雷暴 雨
天空晴朗
雷暴 雨
天空晴朗
雷暴 雨
天空晴朗
能见度
2,5 km
2,5 km
2,5 km
2,5 km
2,5 km
2,5 km
2,5 km
2,5 km
2,5 km
天花板
-
-
-
-
-
-
-
-
-
Var
Var
Var
Var
Var
Var
Var
Var
Var
Var
Var
Var
Var
Var
Var
Var
Var
Var
速度
15 kt
15 kt
15 kt
15 kt
15 kt
15 kt
15 kt
15 kt
15 kt
阵风
25 kt
25 kt
25 kt
25 kt
25 kt
25 kt
25 kt
25 kt
25 kt
温度/星期日
20:59

原版的

TAF LFSL 161100Z 1612/1621 32005KT CAVOK
TEMPO 1612/1621 4000 -SHRA BKN040TCU
PROB40 TEMPO 1612/1621 VRB15G25KT 2500 TSRA BKN040CB

TAF Cabrerets ULM

Cabrerets ULM是卡奥尔,法国中的小机场。 视场标高为1.177 ft。 该领域的国际民航组织标志是FR-0337.

这份报告是针对2022年8月16日 13:00, 当地时间在Brive-Souillac进行的。 从2022年8月16日 14:00到2022年8月16日 23:00, 当地时间有效.

预报

  • 在星期二 14:00和23:00之间

    • 风: 风来自320°方向,速度为5 kt。
    • CAVOK: 天气为CAVOK。这意味着在5.000 ft或MSA(最低安全高度)以下(以较高者为准)以下没有云。这也意味着没有观测到积雨云或高耸的积云,可见度为10 km 或者更多或更高。此外,不会有雾,降雨或其他重要天气。

  • 暂时在星期二 14:00和23:00之间

    • 能见度: 4 km
    • 天气: 光 阵雨 雨
    • 乌云: 碎云 高耸的积云在4.000 ft的高度.

  • 暂时在星期二 14:00和23:00之间 ({一个机会)

    • 风: 可变方向的风很小或没有。 预计25 kt阵风。
    • 能见度: 2,5 km
    • 天气: 雷暴 雨
    • 乌云: 碎云 积雨云在4.000 ft的高度.

白天

今天,太阳从06:57升起,在20:58降落。 这适用于Cabrerets ULM,世界夏令时可能有所不同。 当地时间与世界标准时间之间的时差为+2 小时。 夏令时目前正在进行中。

我们和第三方通过cookies跟踪您在我们网站上的上网行为。如果您继续,我们认为您同意我们的cookie政策。 了解更多